Monroe, Michigan
Current Conditions -  °F | °C
As of 4:56 AM on Sunday 23 Nov 2014 (Local Time) from KTTF Reporting Station
Overcast Overcast  
Wind Chill: 44°   Ceiling: 3000
Heat Index: 46°   Visibility: 10mi
Dew Point: 43°   Wind: 6mph
Humidity: 87%   Direction: 200°SSW
Pressure: 29.94"   Gusts: NA
Location:  41.92°N, 83.4°W
Report Text: KTTF 230956Z AUTO 20005KT 10SM OVC030 08/06 A2994 RMK AO2
Loading
Personal Weather Stations






























Interactive Weather Map New forecast layout! Learn more

10-Day Weather Forecast

Advertisements
Track Severe Weather on mobile